sensor_id;sensor_type;location;lat;lon;timestamp;pressure;altitude;pressure_sealevel;temperature;humidity
73103;BME280;61294;65.988;29.172;2023-03-03T00:05:57;96467.25;;;-11.85;97.09
73103;BME280;61294;65.988;29.172;2023-03-03T00:16:21;96478.84;;;-11.90;97.66
73103;BME280;61294;65.988;29.172;2023-03-03T00:23:44;96473.53;;;-11.96;97.39
73103;BME280;61294;65.988;29.172;2023-03-03T00:29:45;96484.75;;;-12.27;97.05
73103;BME280;61294;65.988;29.172;2023-03-03T00:32:47;96492.34;;;-12.27;96.80
73103;BME280;61294;65.988;29.172;2023-03-03T00:35:31;96517.94;;;-12.23;97.13
73103;BME280;61294;65.988;29.172;2023-03-03T00:38:09;96502.63;;;-12.42;96.85
73103;BME280;61294;65.988;29.172;2023-03-03T00:40:37;96507.88;;;-12.56;95.78
73103;BME280;61294;65.988;29.172;2023-03-03T00:43:29;96486.16;;;-12.51;96.24
73103;BME280;61294;65.988;29.172;2023-03-03T00:46:02;96508.22;;;-12.50;96.57
73103;BME280;61294;65.988;29.172;2023-03-03T00:48:38;96510.69;;;-12.33;97.38
73103;BME280;61294;65.988;29.172;2023-03-03T00:51:30;96502.44;;;-12.29;97.58
73103;BME280;61294;65.988;29.172;2023-03-03T00:53:57;96506.19;;;-12.39;97.25
73103;BME280;61294;65.988;29.172;2023-03-03T00:56:24;96495.47;;;-12.33;97.87
73103;BME280;61294;65.988;29.172;2023-03-03T00:58:50;96498.53;;;-12.22;98.54
73103;BME280;61294;65.988;29.172;2023-03-03T01:01:17;96504.19;;;-12.10;99.37
73103;BME280;61294;65.988;29.172;2023-03-03T01:03:43;96460.47;;;-12.57;98.31
73103;BME280;61294;65.988;29.172;2023-03-03T01:06:16;96483.56;;;-12.52;97.98
73103;BME280;61294;65.988;29.172;2023-03-03T01:09:06;96487.09;;;-12.48;97.99
73103;BME280;61294;65.988;29.172;2023-03-03T01:11:32;96453.13;;;-12.52;98.21
73103;BME280;61294;65.988;29.172;2023-03-03T01:13:57;96478.69;;;-12.47;98.25
73103;BME280;61294;65.988;29.172;2023-03-03T01:16:23;96472.69;;;-12.50;98.42
73103;BME280;61294;65.988;29.172;2023-03-03T01:18:49;96470.44;;;-12.43;98.96
73103;BME280;61294;65.988;29.172;2023-03-03T01:21:15;96479.16;;;-12.38;99.10
73103;BME280;61294;65.988;29.172;2023-03-03T01:23:41;96478.19;;;-12.40;99.38
73103;BME280;61294;65.988;29.172;2023-03-03T01:26:06;96474.09;;;-12.38;99.88
73103;BME280;61294;65.988;29.172;2023-03-03T01:28:33;96471.22;;;-12.44;99.04
73103;BME280;61294;65.988;29.172;2023-03-03T01:31:03;96436.31;;;-12.85;97.84
73103;BME280;61294;65.988;29.172;2023-03-03T01:33:30;96458.56;;;-12.79;97.87
73103;BME280;61294;65.988;29.172;2023-03-03T01:35:57;96472.66;;;-12.68;97.73
73103;BME280;61294;65.988;29.172;2023-03-03T01:38:23;96475.41;;;-12.63;98.26
73103;BME280;61294;65.988;29.172;2023-03-03T01:40:53;96445.16;;;-12.76;98.43
73103;BME280;61294;65.988;29.172;2023-03-03T01:43:19;96483.34;;;-12.73;98.17
73103;BME280;61294;65.988;29.172;2023-03-03T01:48:30;96461.72;;;-12.83;98.30
73103;BME280;61294;65.988;29.172;2023-03-03T01:51:03;96430.69;;;-12.95;98.58
73103;BME280;61294;65.988;29.172;2023-03-03T01:53:38;96458.34;;;-12.83;98.29
73103;BME280;61294;65.988;29.172;2023-03-03T01:56:07;96470.53;;;-12.76;98.18
73103;BME280;61294;65.988;29.172;2023-03-03T01:58:41;96467.66;;;-12.66;98.40
73103;BME280;61294;65.988;29.172;2023-03-03T02:01:19;96481.19;;;-12.65;98.91
73103;BME280;61294;65.988;29.172;2023-03-03T02:03:46;96446.44;;;-12.85;98.73
73103;BME280;61294;65.988;29.172;2023-03-03T02:06:15;96480.25;;;-12.68;98.46
73103;BME280;61294;65.988;29.172;2023-03-03T02:08:52;96481.44;;;-12.61;98.35
73103;BME280;61294;65.988;29.172;2023-03-03T02:11:20;96477.03;;;-12.47;98.62
73103;BME280;61294;65.988;29.172;2023-03-03T02:13:46;96474.94;;;-12.38;98.67
73103;BME280;61294;65.988;29.172;2023-03-03T02:16:13;96471.06;;;-12.31;98.70
73103;BME280;61294;65.988;29.172;2023-03-03T02:18:46;96474.38;;;-12.32;98.53
73103;BME280;61294;65.988;29.172;2023-03-03T02:21:15;96453.25;;;-12.49;98.28
73103;BME280;61294;65.988;29.172;2023-03-03T02:26:28;96467.00;;;-12.62;97.84
73103;BME280;61294;65.988;29.172;2023-03-03T02:28:55;96465.25;;;-12.63;98.10
73103;BME280;61294;65.988;29.172;2023-03-03T02:31:24;96417.94;;;-12.97;98.01
73103;BME280;61294;65.988;29.172;2023-03-03T02:33:53;96452.44;;;-12.82;97.47
73103;BME280;61294;65.988;29.172;2023-03-03T02:36:25;96458.72;;;-12.76;97.85
73103;BME280;61294;65.988;29.172;2023-03-03T02:39:19;96454.03;;;-12.68;98.02
73103;BME280;61294;65.988;29.172;2023-03-03T02:44:18;96462.25;;;-12.38;99.08
73103;BME280;61294;65.988;29.172;2023-03-03T02:46:47;96467.13;;;-12.06;100.00
73103;BME280;61294;65.988;29.172;2023-03-03T02:49:17;96459.31;;;-11.73;100.00
73103;BME280;61294;65.988;29.172;2023-03-03T02:51:43;96465.44;;;-11.50;100.00
73103;BME280;61294;65.988;29.172;2023-03-03T02:58:02;96443.03;;;-11.21;100.00
73103;BME280;61294;65.988;29.172;2023-03-03T03:00:50;96440.66;;;-10.97;100.00
73103;BME280;61294;65.988;29.172;2023-03-03T03:03:16;96451.03;;;-10.93;100.00
73103;BME280;61294;65.988;29.172;2023-03-03T03:05:42;96442.06;;;-10.84;100.00
73103;BME280;61294;65.988;29.172;2023-03-03T03:08:08;96437.16;;;-10.80;100.00
73103;BME280;61294;65.988;29.172;2023-03-03T03:10:35;96435.03;;;-10.69;100.00
73103;BME280;61294;65.988;29.172;2023-03-03T03:13:01;96442.69;;;-10.48;100.00
73103;BME280;61294;65.988;29.172;2023-03-03T03:15:26;96444.72;;;-10.18;100.00
73103;BME280;61294;65.988;29.172;2023-03-03T03:17:52;96442.09;;;-9.98;100.00
73103;BME280;61294;65.988;29.172;2023-03-03T03:20:18;96437.13;;;-9.95;100.00
73103;BME280;61294;65.988;29.172;2023-03-03T03:22:44;96433.84;;;-9.93;100.00
73103;BME280;61294;65.988;29.172;2023-03-03T03:25:09;96430.03;;;-9.81;100.00
73103;BME280;61294;65.988;29.172;2023-03-03T03:27:35;96420.69;;;-9.81;100.00
73103;BME280;61294;65.988;29.172;2023-03-03T03:30:01;96436.09;;;-9.78;100.00
73103;BME280;61294;65.988;29.172;2023-03-03T03:32:27;96430.41;;;-9.71;100.00
73103;BME280;61294;65.988;29.172;2023-03-03T03:34:52;96448.69;;;-9.60;100.00
73103;BME280;61294;65.988;29.172;2023-03-03T03:37:18;96415.44;;;-9.63;100.00
73103;BME280;61294;65.988;29.172;2023-03-03T03:39:44;96399.72;;;-9.74;100.00
73103;BME280;61294;65.988;29.172;2023-03-03T03:42:09;96430.31;;;-9.51;100.00
73103;BME280;61294;65.988;29.172;2023-03-03T03:44:36;96435.50;;;-9.48;100.00
73103;BME280;61294;65.988;29.172;2023-03-03T03:47:01;96434.59;;;-9.50;100.00
73103;BME280;61294;65.988;29.172;2023-03-03T03:49:27;96429.50;;;-9.50;100.00
73103;BME280;61294;65.988;29.172;2023-03-03T03:51:53;96423.47;;;-9.52;100.00
73103;BME280;61294;65.988;29.172;2023-03-03T03:54:18;96440.16;;;-9.38;100.00
73103;BME280;61294;65.988;29.172;2023-03-03T03:56:44;96440.47;;;-9.28;100.00
73103;BME280;61294;65.988;29.172;2023-03-03T03:59:10;96432.03;;;-9.27;100.00
73103;BME280;61294;65.988;29.172;2023-03-03T04:01:36;96430.75;;;-9.16;100.00
73103;BME280;61294;65.988;29.172;2023-03-03T04:04:02;96430.94;;;-9.10;100.00
73103;BME280;61294;65.988;29.172;2023-03-03T04:06:30;96436.91;;;-9.09;100.00
73103;BME280;61294;65.988;29.172;2023-03-03T04:08:56;96403.59;;;-9.14;100.00
73103;BME280;61294;65.988;29.172;2023-03-03T04:11:21;96408.16;;;-9.05;100.00
73103;BME280;61294;65.988;29.172;2023-03-03T04:13:47;96429.81;;;-8.94;100.00
73103;BME280;61294;65.988;29.172;2023-03-03T04:16:13;96415.47;;;-8.90;100.00
73103;BME280;61294;65.988;29.172;2023-03-03T04:18:38;96423.25;;;-8.87;100.00
73103;BME280;61294;65.988;29.172;2023-03-03T04:21:05;96397.09;;;-9.06;100.00
73103;BME280;61294;65.988;29.172;2023-03-03T04:23:31;96409.06;;;-8.79;100.00
73103;BME280;61294;65.988;29.172;2023-03-03T04:25:57;96397.94;;;-8.81;100.00
73103;BME280;61294;65.988;29.172;2023-03-03T04:28:22;96353.63;;;-9.09;100.00
73103;BME280;61294;65.988;29.172;2023-03-03T04:30:49;96410.72;;;-8.79;100.00
73103;BME280;61294;65.988;29.172;2023-03-03T04:33:15;96398.97;;;-8.76;100.00
73103;BME280;61294;65.988;29.172;2023-03-03T04:35:41;96340.25;;;-9.02;100.00
73103;BME280;61294;65.988;29.172;2023-03-03T04:38:06;96403.66;;;-8.62;100.00
73103;BME280;61294;65.988;29.172;2023-03-03T04:40:32;96393.44;;;-8.62;100.00
73103;BME280;61294;65.988;29.172;2023-03-03T04:42:58;96397.03;;;-8.57;100.00
73103;BME280;61294;65.988;29.172;2023-03-03T04:45:24;96364.81;;;-8.79;100.00
73103;BME280;61294;65.988;29.172;2023-03-03T04:47:49;96365.16;;;-8.69;100.00
73103;BME280;61294;65.988;29.172;2023-03-03T04:50:15;96379.09;;;-8.59;100.00
73103;BME280;61294;65.988;29.172;2023-03-03T04:52:41;96334.75;;;-8.88;100.00
73103;BME280;61294;65.988;29.172;2023-03-03T04:55:07;96328.75;;;-8.90;100.00
73103;BME280;61294;65.988;29.172;2023-03-03T04:57:34;96370.28;;;-8.69;100.00
73103;BME280;61294;65.988;29.172;2023-03-03T04:59:59;96389.09;;;-8.65;100.00
73103;BME280;61294;65.988;29.172;2023-03-03T05:02:25;96353.84;;;-8.77;100.00
73103;BME280;61294;65.988;29.172;2023-03-03T05:04:51;96378.97;;;-8.63;100.00
73103;BME280;61294;65.988;29.172;2023-03-03T05:07:16;96381.44;;;-8.65;100.00
73103;BME280;61294;65.988;29.172;2023-03-03T05:09:43;96344.34;;;-8.81;100.00
73103;BME280;61294;65.988;29.172;2023-03-03T05:12:09;96329.53;;;-8.91;100.00
73103;BME280;61294;65.988;29.172;2023-03-03T05:14:34;96322.50;;;-8.98;100.00
73103;BME280;61294;65.988;29.172;2023-03-03T05:17:02;96317.50;;;-8.95;100.00
73103;BME280;61294;65.988;29.172;2023-03-03T05:19:27;96363.56;;;-8.65;100.00
73103;BME280;61294;65.988;29.172;2023-03-03T05:21:53;96373.13;;;-8.59;100.00
73103;BME280;61294;65.988;29.172;2023-03-03T05:24:19;96302.25;;;-8.94;100.00
73103;BME280;61294;65.988;29.172;2023-03-03T05:26:44;96362.97;;;-8.58;100.00
73103;BME280;61294;65.988;29.172;2023-03-03T05:29:10;96367.28;;;-8.55;100.00
73103;BME280;61294;65.988;29.172;2023-03-03T05:31:36;96305.19;;;-8.81;100.00
73103;BME280;61294;65.988;29.172;2023-03-03T05:34:02;96349.38;;;-8.57;100.00
73103;BME280;61294;65.988;29.172;2023-03-03T05:36:28;96362.25;;;-8.54;100.00
73103;BME280;61294;65.988;29.172;2023-03-03T05:38:53;96348.66;;;-8.53;100.00
73103;BME280;61294;65.988;29.172;2023-03-03T05:41:19;96355.59;;;-8.48;100.00
73103;BME280;61294;65.988;29.172;2023-03-03T05:43:45;96363.25;;;-8.48;100.00
73103;BME280;61294;65.988;29.172;2023-03-03T05:46:11;96319.94;;;-8.73;100.00
73103;BME280;61294;65.988;29.172;2023-03-03T05:48:36;96354.19;;;-8.39;100.00
73103;BME280;61294;65.988;29.172;2023-03-03T05:51:02;96299.84;;;-8.63;100.00
73103;BME280;61294;65.988;29.172;2023-03-03T05:53:28;96360.09;;;-8.40;100.00
73103;BME280;61294;65.988;29.172;2023-03-03T05:55:54;96340.44;;;-8.42;100.00
73103;BME280;61294;65.988;29.172;2023-03-03T05:58:20;96328.50;;;-8.45;100.00
73103;BME280;61294;65.988;29.172;2023-03-03T06:00:46;96280.19;;;-8.66;100.00
73103;BME280;61294;65.988;29.172;2023-03-03T06:03:12;96343.34;;;-8.32;100.00
73103;BME280;61294;65.988;29.172;2023-03-03T06:05:38;96339.31;;;-8.25;100.00
73103;BME280;61294;65.988;29.172;2023-03-03T06:08:04;96312.41;;;-8.41;100.00
73103;BME280;61294;65.988;29.172;2023-03-03T06:10:30;96334.91;;;-8.29;100.00
73103;BME280;61294;65.988;29.172;2023-03-03T06:12:55;96322.00;;;-8.34;100.00
73103;BME280;61294;65.988;29.172;2023-03-03T06:15:22;96341.06;;;-8.22;100.00
73103;BME280;61294;65.988;29.172;2023-03-03T06:17:48;96326.66;;;-8.20;100.00
73103;BME280;61294;65.988;29.172;2023-03-03T06:20:14;96314.72;;;-8.21;100.00
73103;BME280;61294;65.988;29.172;2023-03-03T06:22:40;96338.22;;;-8.04;100.00
73103;BME280;61294;65.988;29.172;2023-03-03T06:25:06;96301.53;;;-8.06;100.00
73103;BME280;61294;65.988;29.172;2023-03-03T06:27:35;96283.34;;;-8.17;100.00
73103;BME280;61294;65.988;29.172;2023-03-03T06:30:01;96335.25;;;-7.89;100.00
73103;BME280;61294;65.988;29.172;2023-03-03T06:32:27;96327.63;;;-7.88;100.00
73103;BME280;61294;65.988;29.172;2023-03-03T06:34:52;96315.81;;;-7.84;100.00
73103;BME280;61294;65.988;29.172;2023-03-03T06:37:21;96312.44;;;-7.83;100.00
73103;BME280;61294;65.988;29.172;2023-03-03T06:39:47;96259.94;;;-8.02;100.00
73103;BME280;61294;65.988;29.172;2023-03-03T06:42:17;96303.47;;;-7.69;100.00
73103;BME280;61294;65.988;29.172;2023-03-03T06:44:44;96313.69;;;-7.69;100.00
73103;BME280;61294;65.988;29.172;2023-03-03T06:47:10;96273.94;;;-7.89;100.00
73103;BME280;61294;65.988;29.172;2023-03-03T06:49:36;96282.78;;;-7.78;100.00
73103;BME280;61294;65.988;29.172;2023-03-03T06:52:10;96316.59;;;-7.56;100.00
73103;BME280;61294;65.988;29.172;2023-03-03T06:54:37;96305.59;;;-7.54;100.00
73103;BME280;61294;65.988;29.172;2023-03-03T06:57:19;96333.50;;;-7.61;100.00
73103;BME280;61294;65.988;29.172;2023-03-03T06:59:51;96297.00;;;-7.86;100.00
73103;BME280;61294;65.988;29.172;2023-03-03T07:02:18;96323.44;;;-7.55;100.00
73103;BME280;61294;65.988;29.172;2023-03-03T07:04:45;96285.22;;;-7.81;100.00
73103;BME280;61294;65.988;29.172;2023-03-03T07:07:23;96308.28;;;-7.49;100.00
73103;BME280;61294;65.988;29.172;2023-03-03T07:09:52;96303.63;;;-7.63;100.00
73103;BME280;61294;65.988;29.172;2023-03-03T07:12:23;96295.38;;;-7.54;100.00
73103;BME280;61294;65.988;29.172;2023-03-03T07:17:34;96305.31;;;-7.33;100.00
73103;BME280;61294;65.988;29.172;2023-03-03T07:20:17;96319.22;;;-7.23;100.00
73103;BME280;61294;65.988;29.172;2023-03-03T07:22:43;96292.06;;;-7.18;100.00
73103;BME280;61294;65.988;29.172;2023-03-03T07:25:20;96285.31;;;-7.14;100.00
73103;BME280;61294;65.988;29.172;2023-03-03T07:27:47;96273.16;;;-7.23;100.00
73103;BME280;61294;65.988;29.172;2023-03-03T07:30:27;96289.72;;;-7.08;100.00
73103;BME280;61294;65.988;29.172;2023-03-03T07:32:54;96286.66;;;-6.97;100.00
73103;BME280;61294;65.988;29.172;2023-03-03T07:38:20;96275.91;;;-6.82;100.00
73103;BME280;61294;65.988;29.172;2023-03-03T07:40:53;96262.94;;;-6.89;100.00
73103;BME280;61294;65.988;29.172;2023-03-03T07:43:48;96265.97;;;-6.69;100.00
73103;BME280;61294;65.988;29.172;2023-03-03T07:46:35;96212.69;;;-6.84;100.00
73103;BME280;61294;65.988;29.172;2023-03-03T07:49:21;96263.81;;;-6.52;100.00
73103;BME280;61294;65.988;29.172;2023-03-03T07:51:52;96262.97;;;-6.51;100.00
73103;BME280;61294;65.988;29.172;2023-03-03T07:54:34;96253.00;;;-6.39;100.00
73103;BME280;61294;65.988;29.172;2023-03-03T08:02:34;96247.03;;;-6.00;100.00
73103;BME280;61294;65.988;29.172;2023-03-03T08:05:22;96246.31;;;-5.93;100.00
73103;BME280;61294;65.988;29.172;2023-03-03T08:07:51;96218.69;;;-6.06;100.00
73103;BME280;61294;65.988;29.172;2023-03-03T08:13:13;96223.88;;;-5.59;100.00
73103;BME280;61294;65.988;29.172;2023-03-03T08:15:41;96255.16;;;-5.32;100.00
73103;BME280;61294;65.988;29.172;2023-03-03T08:18:46;96230.47;;;-5.27;100.00
73103;BME280;61294;65.988;29.172;2023-03-03T08:21:14;96256.06;;;-5.29;100.00
73103;BME280;61294;65.988;29.172;2023-03-03T08:23:40;96244.38;;;-5.14;100.00
73103;BME280;61294;65.988;29.172;2023-03-03T08:26:07;96240.81;;;-5.23;100.00
73103;BME280;61294;65.988;29.172;2023-03-03T08:28:34;96196.00;;;-5.40;100.00
73103;BME280;61294;65.988;29.172;2023-03-03T08:30:59;96233.97;;;-5.21;100.00
73103;BME280;61294;65.988;29.172;2023-03-03T08:33:25;96209.31;;;-5.12;100.00
73103;BME280;61294;65.988;29.172;2023-03-03T08:35:51;96203.47;;;-5.04;100.00
73103;BME280;61294;65.988;29.172;2023-03-03T08:38:19;96233.16;;;-4.66;100.00
73103;BME280;61294;65.988;29.172;2023-03-03T08:40:46;96228.91;;;-4.67;100.00
73103;BME280;61294;65.988;29.172;2023-03-03T08:43:13;96230.19;;;-4.37;100.00
73103;BME280;61294;65.988;29.172;2023-03-03T08:45:45;96232.09;;;-4.24;100.00
73103;BME280;61294;65.988;29.172;2023-03-03T08:48:11;96202.25;;;-4.14;100.00
73103;BME280;61294;65.988;29.172;2023-03-03T08:50:37;96229.16;;;-3.87;100.00
73103;BME280;61294;65.988;29.172;2023-03-03T08:53:04;96194.03;;;-3.84;100.00
73103;BME280;61294;65.988;29.172;2023-03-03T08:55:30;96202.06;;;-3.59;100.00
73103;BME280;61294;65.988;29.172;2023-03-03T08:57:56;96200.69;;;-3.27;100.00
73103;BME280;61294;65.988;29.172;2023-03-03T09:00:23;96224.69;;;-2.24;100.00
73103;BME280;61294;65.988;29.172;2023-03-03T09:02:50;96166.97;;;-2.48;100.00
73103;BME280;61294;65.988;29.172;2023-03-03T09:05:17;96212.19;;;-1.33;99.98
73103;BME280;61294;65.988;29.172;2023-03-03T09:07:44;96218.22;;;-1.40;97.37
73103;BME280;61294;65.988;29.172;2023-03-03T09:10:13;96169.13;;;-1.52;96.15
73103;BME280;61294;65.988;29.172;2023-03-03T09:12:42;96187.09;;;-1.74;95.15
73103;BME280;61294;65.988;29.172;2023-03-03T09:17:43;96204.63;;;1.36;88.33
73103;BME280;61294;65.988;29.172;2023-03-03T09:25:49;96175.06;;;7.80;57.22
73103;BME280;61294;65.988;29.172;2023-03-03T09:30:47;96174.31;;;10.51;47.47
73103;BME280;61294;65.988;29.172;2023-03-03T09:35:51;96200.28;;;4.94;54.81
73103;BME280;61294;65.988;29.172;2023-03-03T09:43:42;96190.16;;;5.57;55.22
73103;BME280;61294;65.988;29.172;2023-03-03T09:46:27;96191.03;;;3.38;58.03
73103;BME280;61294;65.988;29.172;2023-03-03T09:51:47;96163.09;;;1.40;64.10
73103;BME280;61294;65.988;29.172;2023-03-03T09:54:38;96192.78;;;1.05;66.25
73103;BME280;61294;65.988;29.172;2023-03-03T10:11:15;96127.31;;;16.81;33.10
73103;BME280;61294;65.988;29.172;2023-03-03T10:13:52;96127.59;;;18.25;30.83
73103;BME280;61294;65.988;29.172;2023-03-03T10:21:50;96149.28;;;13.27;34.13
73103;BME280;61294;65.988;29.172;2023-03-03T10:24:29;96137.41;;;7.83;40.24
73103;BME280;61294;65.988;29.172;2023-03-03T10:29:55;96159.34;;;4.57;49.24
73103;BME280;61294;65.988;29.172;2023-03-03T10:44:04;96136.88;;;3.06;54.07
73103;BME280;61294;65.988;29.172;2023-03-03T10:46:58;96158.31;;;1.88;57.55
73103;BME280;61294;65.988;29.172;2023-03-03T10:49:46;96166.88;;;2.71;58.34
73103;BME280;61294;65.988;29.172;2023-03-03T10:58:00;96141.91;;;4.99;54.28
73103;BME280;61294;65.988;29.172;2023-03-03T11:00:34;96127.94;;;6.38;51.30
73103;BME280;61294;65.988;29.172;2023-03-03T11:03:36;96121.97;;;15.77;36.27
73103;BME280;61294;65.988;29.172;2023-03-03T11:06:39;96128.22;;;17.69;30.42
73103;BME280;61294;65.988;29.172;2023-03-03T11:09:33;96134.16;;;14.38;34.17
73103;BME280;61294;65.988;29.172;2023-03-03T11:12:25;96149.84;;;8.77;39.08
73103;BME280;61294;65.988;29.172;2023-03-03T11:15:48;96150.97;;;5.91;45.62
73103;BME280;61294;65.988;29.172;2023-03-03T11:23:04;96155.78;;;0.78;60.76
73103;BME280;61294;65.988;29.172;2023-03-03T11:29:01;96151.78;;;0.15;65.70
73103;BME280;61294;65.988;29.172;2023-03-03T11:39:49;96136.25;;;0.15;67.68
73103;BME280;61294;65.988;29.172;2023-03-03T11:42:29;96121.50;;;0.31;68.14
73103;BME280;61294;65.988;29.172;2023-03-03T11:45:59;96125.16;;;-0.18;69.65
73103;BME280;61294;65.988;29.172;2023-03-03T11:50:57;96110.75;;;0.96;70.10
73103;BME280;61294;65.988;29.172;2023-03-03T11:53:30;96114.97;;;4.16;61.31
73103;BME280;61294;65.988;29.172;2023-03-03T12:05:14;96104.28;;;3.39;54.25
73103;BME280;61294;65.988;29.172;2023-03-03T12:07:48;96120.22;;;3.18;57.58
73103;BME280;61294;65.988;29.172;2023-03-03T12:13:12;96119.19;;;2.05;60.95
73103;BME280;61294;65.988;29.172;2023-03-03T12:18:33;96122.72;;;1.98;63.64
73103;BME280;61294;65.988;29.172;2023-03-03T12:27:13;96114.16;;;0.99;66.26
73103;BME280;61294;65.988;29.172;2023-03-03T12:29:49;96097.09;;;0.71;66.79
73103;BME280;61294;65.988;29.172;2023-03-03T12:37:47;96119.66;;;0.53;68.83
73103;BME280;61294;65.988;29.172;2023-03-03T12:40:28;96113.75;;;0.26;69.08
73103;BME280;61294;65.988;29.172;2023-03-03T12:45:52;96108.66;;;0.11;70.38
73103;BME280;61294;65.988;29.172;2023-03-03T12:48:39;96115.66;;;-0.18;71.51
73103;BME280;61294;65.988;29.172;2023-03-03T12:54:22;96108.75;;;-0.09;71.59
73103;BME280;61294;65.988;29.172;2023-03-03T12:56:54;96083.00;;;-0.59;72.63
73103;BME280;61294;65.988;29.172;2023-03-03T12:59:32;96113.22;;;-0.65;73.29
73103;BME280;61294;65.988;29.172;2023-03-03T13:02:26;96104.56;;;-0.55;73.89
73103;BME280;61294;65.988;29.172;2023-03-03T13:16:57;96089.97;;;-1.12;78.37
73103;BME280;61294;65.988;29.172;2023-03-03T13:19:33;96083.09;;;-1.28;77.71
73103;BME280;61294;65.988;29.172;2023-03-03T13:22:09;96077.91;;;-1.47;78.85
73103;BME280;61294;65.988;29.172;2023-03-03T13:27:19;96124.34;;;-1.59;80.71
73103;BME280;61294;65.988;29.172;2023-03-03T13:30:03;96063.97;;;-2.15;80.66
73103;BME280;61294;65.988;29.172;2023-03-03T13:35:39;96109.66;;;-1.85;82.39
73103;BME280;61294;65.988;29.172;2023-03-03T13:38:11;96056.22;;;-2.20;82.99
73103;BME280;61294;65.988;29.172;2023-03-03T13:40:48;96079.50;;;-2.01;82.56
73103;BME280;61294;65.988;29.172;2023-03-03T13:43:27;96067.44;;;-2.12;82.61
73103;BME280;61294;65.988;29.172;2023-03-03T13:46:08;96096.78;;;-1.74;84.11
73103;BME280;61294;65.988;29.172;2023-03-03T13:51:35;96076.91;;;-2.00;83.00
73103;BME280;61294;65.988;29.172;2023-03-03T13:54:33;96097.56;;;-2.00;83.54
73103;BME280;61294;65.988;29.172;2023-03-03T14:08:06;96083.66;;;-2.37;86.04
73103;BME280;61294;65.988;29.172;2023-03-03T14:13:26;96067.22;;;-2.61;87.95
73103;BME280;61294;65.988;29.172;2023-03-03T14:16:06;96102.56;;;-2.34;88.56
73103;BME280;61294;65.988;29.172;2023-03-03T14:18:51;96077.53;;;-2.58;89.34
73103;BME280;61294;65.988;29.172;2023-03-03T14:21:34;96041.31;;;-2.90;90.12
73103;BME280;61294;65.988;29.172;2023-03-03T14:24:20;96105.94;;;-2.52;90.54
73103;BME280;61294;65.988;29.172;2023-03-03T14:26:58;96078.34;;;-2.65;91.41
73103;BME280;61294;65.988;29.172;2023-03-03T14:31:55;96046.47;;;-2.87;92.66
73103;BME280;61294;65.988;29.172;2023-03-03T14:34:38;96052.41;;;-2.98;93.38
73103;BME280;61294;65.988;29.172;2023-03-03T14:37:43;96080.88;;;-2.79;94.54
73103;BME280;61294;65.988;29.172;2023-03-03T14:40:21;96051.53;;;-2.97;95.22
73103;BME280;61294;65.988;29.172;2023-03-03T14:42:53;96088.69;;;-2.62;95.53
73103;BME280;61294;65.988;29.172;2023-03-03T14:45:30;96084.31;;;-2.72;97.07
73103;BME280;61294;65.988;29.172;2023-03-03T14:47:57;96099.75;;;-2.79;98.16
73103;BME280;61294;65.988;29.172;2023-03-03T14:50:34;96093.69;;;-2.87;99.33
73103;BME280;61294;65.988;29.172;2023-03-03T14:53:20;96050.56;;;-3.16;100.00
73103;BME280;61294;65.988;29.172;2023-03-03T14:55:49;96055.72;;;-3.16;100.00
73103;BME280;61294;65.988;29.172;2023-03-03T14:58:37;96095.41;;;-2.87;100.00
73103;BME280;61294;65.988;29.172;2023-03-03T15:01:21;96091.94;;;-2.89;100.00
73103;BME280;61294;65.988;29.172;2023-03-03T15:14:52;96066.84;;;-3.18;100.00
73103;BME280;61294;65.988;29.172;2023-03-03T15:17:52;96063.34;;;-3.26;100.00
73103;BME280;61294;65.988;29.172;2023-03-03T15:25:57;96079.69;;;-3.24;100.00
73103;BME280;61294;65.988;29.172;2023-03-03T15:29:22;96073.59;;;-3.37;100.00
73103;BME280;61294;65.988;29.172;2023-03-03T15:40:23;96095.16;;;-3.20;100.00
73103;BME280;61294;65.988;29.172;2023-03-03T15:43:04;96039.16;;;-3.49;100.00
73103;BME280;61294;65.988;29.172;2023-03-03T15:48:27;96088.28;;;-3.22;100.00
73103;BME280;61294;65.988;29.172;2023-03-03T15:51:38;96077.97;;;-3.25;100.00
73103;BME280;61294;65.988;29.172;2023-03-03T15:57:09;96073.63;;;-3.28;100.00
73103;BME280;61294;65.988;29.172;2023-03-03T16:05:22;96086.50;;;-3.28;100.00
73103;BME280;61294;65.988;29.172;2023-03-03T16:10:55;96075.41;;;-3.22;100.00
73103;BME280;61294;65.988;29.172;2023-03-03T16:14:00;96070.25;;;-3.21;100.00
73103;BME280;61294;65.988;29.172;2023-03-03T16:16:44;96071.94;;;-3.27;100.00
73103;BME280;61294;65.988;29.172;2023-03-03T16:19:27;96064.97;;;-3.38;100.00
73103;BME280;61294;65.988;29.172;2023-03-03T16:28:00;96069.97;;;-3.58;100.00
73103;BME280;61294;65.988;29.172;2023-03-03T16:30:45;96074.19;;;-3.66;100.00
73103;BME280;61294;65.988;29.172;2023-03-03T16:33:33;96080.25;;;-3.56;100.00
73103;BME280;61294;65.988;29.172;2023-03-03T16:41:09;96096.59;;;-3.54;100.00
73103;BME280;61294;65.988;29.172;2023-03-03T16:51:55;96073.25;;;-3.73;100.00
73103;BME280;61294;65.988;29.172;2023-03-03T16:54:49;96090.47;;;-3.66;100.00
73103;BME280;61294;65.988;29.172;2023-03-03T16:57:33;96061.97;;;-3.89;100.00
73103;BME280;61294;65.988;29.172;2023-03-03T17:00:07;96075.78;;;-3.79;100.00
73103;BME280;61294;65.988;29.172;2023-03-03T17:06:18;96035.13;;;-4.14;100.00
73103;BME280;61294;65.988;29.172;2023-03-03T17:12:05;96054.09;;;-4.04;100.00
73103;BME280;61294;65.988;29.172;2023-03-03T17:14:54;96073.06;;;-3.94;100.00
73103;BME280;61294;65.988;29.172;2023-03-03T17:17:29;96082.47;;;-3.95;100.00
73103;BME280;61294;65.988;29.172;2023-03-03T17:20:31;96085.97;;;-3.88;100.00
73103;BME280;61294;65.988;29.172;2023-03-03T17:23:22;96084.16;;;-3.97;100.00
73103;BME280;61294;65.988;29.172;2023-03-03T17:31:22;96036.69;;;-4.27;100.00
73103;BME280;61294;65.988;29.172;2023-03-03T17:42:32;96079.75;;;-4.09;100.00
73103;BME280;61294;65.988;29.172;2023-03-03T17:45:11;96061.69;;;-4.15;100.00
73103;BME280;61294;65.988;29.172;2023-03-03T17:47:58;96066.88;;;-4.10;100.00